createdAt,value
2023-02-20T00:02:58.296Z,13.1
2023-02-20T00:05:58.302Z,11.3
2023-02-20T00:08:58.299Z,11.9
2023-02-20T00:11:58.307Z,11.3
2023-02-20T00:14:58.308Z,11.1
2023-02-20T00:17:58.313Z,12.2
2023-02-20T00:20:58.327Z,12
2023-02-20T00:23:58.339Z,11.2
2023-02-20T00:26:58.328Z,11.6
2023-02-20T00:29:58.338Z,11.1
2023-02-20T00:32:58.341Z,11.7
2023-02-20T00:35:58.358Z,12.9
2023-02-20T00:38:58.348Z,12.5
2023-02-20T00:41:58.369Z,11.2
2023-02-20T00:44:58.358Z,12.4
2023-02-20T00:47:58.361Z,12.6
2023-02-20T00:50:58.369Z,12.1
2023-02-20T00:53:58.380Z,12.2
2023-02-20T00:56:58.385Z,13.3
2023-02-20T00:59:58.389Z,12.3
2023-02-20T01:02:58.411Z,12.3
2023-02-20T01:05:58.395Z,13.8
2023-02-20T01:08:58.408Z,14.8
2023-02-20T01:11:58.399Z,12.7
2023-02-20T01:14:58.400Z,13.2
2023-02-20T01:17:58.409Z,13.8
2023-02-20T01:20:58.417Z,14.1
2023-02-20T01:23:58.419Z,14.2
2023-02-20T01:26:58.422Z,13.2
2023-02-20T01:29:58.433Z,13.6
2023-02-20T01:32:58.426Z,13.2
2023-02-20T01:35:58.437Z,14
2023-02-20T01:38:58.448Z,13.3
2023-02-20T01:41:58.447Z,12.4
2023-02-20T01:44:58.453Z,12.9
2023-02-20T01:47:58.456Z,12.5
2023-02-20T01:50:58.464Z,11.8
2023-02-20T01:53:58.471Z,12.2
2023-02-20T01:56:58.471Z,12.2
2023-02-20T01:59:58.477Z,12.8
2023-02-20T02:02:58.482Z,11.3
2023-02-20T02:05:58.501Z,10.4
2023-02-20T02:08:58.488Z,11.7
2023-02-20T02:11:58.495Z,10.5
2023-02-20T02:14:58.494Z,10.5
2023-02-20T02:17:58.494Z,10.7
2023-02-20T02:20:58.499Z,11.2
2023-02-20T02:23:58.501Z,9.9
2023-02-20T02:26:58.513Z,10.7
2023-02-20T02:29:58.500Z,9.6
2023-02-20T02:32:58.504Z,10.2
2023-02-20T02:35:58.506Z,10
2023-02-20T02:38:58.536Z,10.9
2023-02-20T02:41:58.512Z,10
2023-02-20T02:44:58.522Z,11.1
2023-02-20T02:47:58.529Z,9.6
2023-02-20T02:50:58.536Z,9.6
2023-02-20T02:53:58.540Z,10
2023-02-20T02:56:58.563Z,8.4
2023-02-20T02:59:58.544Z,8.3
2023-02-20T03:02:58.548Z,8.4
2023-02-20T03:05:58.548Z,9.3
2023-02-20T03:08:58.553Z,9.7
2023-02-20T03:11:58.557Z,9
2023-02-20T03:14:58.587Z,8.6
2023-02-20T03:17:58.575Z,8.4
2023-02-20T03:20:58.575Z,9.1
2023-02-20T03:23:58.589Z,8.3
2023-02-20T03:26:58.596Z,7.8
2023-02-20T03:29:58.597Z,8.5
2023-02-20T03:32:58.832Z,8.5
2023-02-20T03:35:58.614Z,8.5
2023-02-20T03:38:58.622Z,9
2023-02-20T03:41:58.626Z,8.5
2023-02-20T03:44:58.643Z,9.3
2023-02-20T03:47:58.636Z,8.9
2023-02-20T03:50:58.660Z,9.3
2023-02-20T03:53:58.643Z,9.6
2023-02-20T03:56:58.643Z,9.5
2023-02-20T03:59:58.648Z,10.1
2023-02-20T04:02:58.684Z,11.4
2023-02-20T04:05:58.656Z,10.5
2023-02-20T04:08:58.690Z,10.4
2023-02-20T04:11:58.662Z,11.2
2023-02-20T04:14:58.670Z,11.2
2023-02-20T04:17:58.663Z,11.2
2023-02-20T04:20:58.665Z,11.5
2023-02-20T04:23:58.665Z,12.8
2023-02-20T04:26:58.700Z,11.3
2023-02-20T04:29:58.674Z,12.4
2023-02-20T04:32:58.669Z,12.4
2023-02-20T04:35:58.676Z,13.4
2023-02-20T04:38:58.672Z,13.2
2023-02-20T04:41:58.670Z,15
2023-02-20T04:44:58.792Z,15.1
2023-02-20T04:47:58.680Z,16.7
2023-02-20T04:50:58.678Z,16.5
2023-02-20T04:53:58.676Z,17.5
2023-02-20T04:56:58.696Z,17.5
2023-02-20T04:59:58.686Z,17.3
2023-02-20T05:02:58.717Z,16.5
2023-02-20T05:05:58.686Z,18.2
2023-02-20T05:08:58.690Z,17.6
2023-02-20T05:11:58.695Z,17.9
2023-02-20T05:14:58.703Z,18.2
2023-02-20T05:17:58.706Z,18.4
2023-02-20T05:20:58.730Z,18.1
2023-02-20T05:23:58.703Z,18
2023-02-20T05:26:58.714Z,19.3
2023-02-20T05:29:58.710Z,19.4
2023-02-20T05:32:58.712Z,17.6
2023-02-20T05:35:58.714Z,20
2023-02-20T05:38:58.746Z,18.1
2023-02-20T05:41:58.714Z,18.4
2023-02-20T05:44:58.723Z,20
2023-02-20T05:47:58.723Z,19.9
2023-02-20T05:50:58.723Z,18.8
2023-02-20T05:53:58.727Z,19.1
2023-02-20T05:57:00.596Z,18.4
2023-02-20T05:59:58.727Z,18
2023-02-20T06:02:58.733Z,17.6
2023-02-20T06:05:58.735Z,18.5
2023-02-20T06:08:58.735Z,17.3
2023-02-20T06:11:58.736Z,18.5
2023-02-20T06:14:58.768Z,16.6
2023-02-20T06:17:58.740Z,17.4
2023-02-20T06:20:58.748Z,16.3
2023-02-20T06:23:58.747Z,16.5
2023-02-20T06:26:58.754Z,16.5
2023-02-20T06:29:58.756Z,16.3
2023-02-20T06:32:58.778Z,15.8
2023-02-20T06:35:58.757Z,17.7
2023-02-20T06:38:58.762Z,15.8
2023-02-20T06:41:58.764Z,16.5
2023-02-20T06:44:58.768Z,16.7
2023-02-20T06:47:58.779Z,16.6
2023-02-20T06:50:58.808Z,15.8
2023-02-20T06:53:58.774Z,16.1
2023-02-20T06:56:58.775Z,14.7
2023-02-20T06:59:58.786Z,14.6
2023-02-20T07:02:58.785Z,14.6
2023-02-20T07:05:58.789Z,13.5
2023-02-20T07:08:58.816Z,15
2023-02-20T07:11:58.805Z,13.1
2023-02-20T07:14:58.793Z,14.6
2023-02-20T07:17:58.797Z,12.8
2023-02-20T07:20:58.799Z,13.9
2023-02-20T07:23:58.799Z,11.8
2023-02-20T07:26:58.827Z,12.2
2023-02-20T07:29:58.803Z,14.4
2023-02-20T07:32:58.808Z,11.3
2023-02-20T07:35:58.809Z,11.6
2023-02-20T07:38:58.812Z,11.1
2023-02-20T07:41:58.818Z,11.1
2023-02-20T07:44:58.844Z,11.3
2023-02-20T07:47:58.829Z,10.8
2023-02-20T07:50:58.831Z,10.2
2023-02-20T07:53:58.831Z,11.5
2023-02-20T07:56:58.832Z,9.2
2023-02-20T07:59:58.839Z,10.7
2023-02-20T08:02:58.864Z,11
2023-02-20T08:05:58.846Z,10.3
2023-02-20T08:08:58.847Z,9.7
2023-02-20T08:11:58.846Z,10.1
2023-02-20T08:14:58.866Z,9.5
2023-02-20T08:17:58.850Z,8.8
2023-02-20T08:20:59.450Z,10.1
2023-02-20T08:23:58.868Z,10.2
2023-02-20T08:26:59.361Z,10.6
2023-02-20T08:29:58.873Z,11.4
2023-02-20T08:32:58.906Z,8.2
2023-02-20T08:35:58.939Z,9.8
2023-02-20T08:38:59.020Z,10
2023-02-20T08:41:58.966Z,10
2023-02-20T08:44:58.956Z,10.6
2023-02-20T08:47:59.063Z,10
2023-02-20T08:50:58.904Z,10.4
2023-02-20T08:53:59.050Z,9.8
2023-02-20T08:56:58.939Z,10.9
2023-02-20T08:59:59.214Z,11.5
2023-02-20T09:02:58.962Z,10.5
2023-02-20T09:05:59.106Z,7.6
2023-02-20T09:08:59.183Z,9.4
2023-02-20T09:11:59.120Z,10.6
2023-02-20T09:14:58.965Z,9.7
2023-02-20T09:17:58.936Z,12.8
2023-02-20T09:20:58.950Z,9.8
2023-02-20T09:23:58.964Z,11.2
2023-02-20T09:26:58.995Z,10.7
2023-02-20T09:29:58.961Z,12.3
2023-02-20T09:32:59.004Z,10.7
2023-02-20T09:35:58.970Z,12.3
2023-02-20T09:38:59.003Z,12.2
2023-02-20T09:41:58.981Z,13.1
2023-02-20T09:44:58.986Z,12.3
2023-02-20T09:47:58.993Z,14.4
2023-02-20T09:50:59.026Z,15.2
2023-02-20T09:53:59.013Z,15.1
2023-02-20T09:56:59.024Z,14
2023-02-20T10:00:01.070Z,13.7
2023-02-20T10:02:59.184Z,15.9
2023-02-20T10:05:59.045Z,15.5
2023-02-20T10:08:59.068Z,15
2023-02-20T10:11:59.034Z,16.8
2023-02-20T10:14:59.042Z,17.9
2023-02-20T10:17:59.061Z,17.5
2023-02-20T10:20:59.050Z,18.6
2023-02-20T10:24:05.476Z,18.1
2023-02-20T10:26:59.089Z,19.8
2023-02-20T10:29:59.080Z,18.7
2023-02-20T10:32:59.081Z,20.8
2023-02-20T10:35:59.095Z,20.5
2023-02-20T10:38:59.194Z,21.6
2023-02-20T10:41:59.085Z,22.2
2023-02-20T10:44:59.118Z,22.3
2023-02-20T10:47:59.095Z,22.3
2023-02-20T10:50:59.100Z,22.6
2023-02-20T10:53:59.112Z,22.8
2023-02-20T10:56:59.124Z,21.1
2023-02-20T10:59:59.109Z,22.7
2023-02-20T11:02:59.128Z,23.4
2023-02-20T11:05:59.111Z,22.9
2023-02-20T11:08:59.130Z,22.7
2023-02-20T11:11:59.123Z,23.5
2023-02-20T11:14:59.126Z,25.7
2023-02-20T11:17:59.130Z,24.6
2023-02-20T11:20:59.172Z,24.8
2023-02-20T11:23:59.141Z,26
2023-02-20T11:26:59.136Z,24.2
2023-02-20T11:29:59.149Z,25.8
2023-02-20T11:32:59.136Z,23.8
2023-02-20T11:35:59.169Z,24.1
2023-02-20T11:38:59.176Z,24
2023-02-20T11:41:59.157Z,24.6
2023-02-20T11:44:59.150Z,24.5
2023-02-20T11:47:59.147Z,25.7
2023-02-20T11:50:59.150Z,23.1
2023-02-20T11:53:59.175Z,24.6
2023-02-20T11:56:59.190Z,23.4
2023-02-20T11:59:59.160Z,24.7
2023-02-20T12:02:59.225Z,25
2023-02-20T12:05:59.241Z,25.3
2023-02-20T12:09:01.147Z,23.4
2023-02-20T12:11:59.193Z,26.2
2023-02-20T12:14:59.236Z,25.4
2023-02-20T12:17:59.211Z,25.7
2023-02-20T12:20:59.218Z,24.2
2023-02-20T12:23:59.235Z,25.6
2023-02-20T12:26:59.347Z,25.2
2023-02-20T12:29:59.241Z,23.9
2023-02-20T12:32:59.280Z,25.3
2023-02-20T12:35:59.262Z,26.6
2023-02-20T12:38:59.289Z,24.6
2023-02-20T12:41:59.286Z,25.4
2023-02-20T12:44:59.289Z,27.6
2023-02-20T12:47:59.300Z,28.8
2023-02-20T12:50:59.343Z,29.1
2023-02-20T12:53:59.336Z,28.4
2023-02-20T12:56:59.324Z,27.9
2023-02-20T12:59:59.336Z,30.4
2023-02-20T13:02:59.343Z,30.6
2023-02-20T13:05:59.386Z,29.5
2023-02-20T13:08:59.402Z,30.5
2023-02-20T13:11:59.376Z,33.3
2023-02-20T13:14:59.431Z,29.2
2023-02-20T13:17:59.392Z,29.4
2023-02-20T13:20:59.401Z,35.5
2023-02-20T13:23:59.415Z,29.3
2023-02-20T13:26:59.442Z,31.5
2023-02-20T13:29:59.424Z,28.4
2023-02-20T13:32:59.440Z,29
2023-02-20T13:35:59.442Z,30.9
2023-02-20T13:38:59.451Z,27.4
2023-02-20T13:41:59.450Z,31.3
2023-02-20T13:44:59.477Z,29
2023-02-20T13:47:59.467Z,26.6
2023-02-20T13:50:59.468Z,28
2023-02-20T13:53:59.486Z,25.7
2023-02-20T13:56:59.697Z,26.5
2023-02-20T13:59:59.483Z,23.9
2023-02-20T14:02:59.534Z,23.6
2023-02-20T14:05:59.496Z,24.4
2023-02-20T14:08:59.520Z,23.7
2023-02-20T14:11:59.511Z,24.5
2023-02-20T14:14:59.516Z,24.6
2023-02-20T14:17:59.527Z,25.3
2023-02-20T14:20:59.647Z,24.9
2023-02-20T14:23:59.553Z,27.8
2023-02-20T14:26:59.542Z,25.3
2023-02-20T14:29:59.537Z,25.6
2023-02-20T14:32:59.546Z,25.7
2023-02-20T14:35:59.550Z,28.9
2023-02-20T14:38:59.589Z,27.2
2023-02-20T14:41:59.560Z,26.2
2023-02-20T14:44:59.563Z,27.1
2023-02-20T14:47:59.571Z,24.9
2023-02-20T14:50:59.570Z,25.9
2023-02-20T14:53:59.582Z,25.9
2023-02-20T14:56:59.591Z,24.6
2023-02-20T14:59:59.585Z,22.3
2023-02-20T15:02:59.590Z,21.7
2023-02-20T15:05:59.580Z,23.6
2023-02-20T15:09:00.980Z,19.8
2023-02-20T15:11:59.588Z,21.4
2023-02-20T15:14:59.615Z,22.2
2023-02-20T15:17:59.595Z,19.5
2023-02-20T15:20:59.600Z,18.6
2023-02-20T15:23:59.611Z,17.3
2023-02-20T15:26:59.608Z,18.7
2023-02-20T15:29:59.612Z,19.5
2023-02-20T15:32:59.648Z,18
2023-02-20T15:35:59.759Z,19.4
2023-02-20T15:38:59.634Z,19.6
2023-02-20T15:41:59.958Z,18.9
2023-02-20T15:44:59.635Z,17.7
2023-02-20T15:47:59.658Z,18.1
2023-02-20T15:50:59.913Z,17.7
2023-02-20T15:53:59.659Z,15.4
2023-02-20T15:56:59.655Z,17.2
2023-02-20T15:59:59.666Z,16.3
2023-02-20T16:02:59.736Z,16
2023-02-20T16:05:59.728Z,17.2
2023-02-20T16:08:59.713Z,15.6
2023-02-20T16:11:59.689Z,14.9
2023-02-20T16:14:59.692Z,16.9
2023-02-20T16:17:59.691Z,15.9
2023-02-20T16:20:59.904Z,16.7
2023-02-20T16:23:59.709Z,18.2
2023-02-20T16:26:59.726Z,14.4
2023-02-20T16:29:59.714Z,15.4
2023-02-20T16:32:59.714Z,15.9
2023-02-20T16:35:59.721Z,17
2023-02-20T16:38:59.731Z,17.1
2023-02-20T16:41:59.745Z,16.3
2023-02-20T16:44:59.759Z,17.6
2023-02-20T16:47:59.762Z,17.6
2023-02-20T16:50:59.748Z,20
2023-02-20T16:53:59.766Z,20.3
2023-02-20T16:56:59.749Z,18.8
2023-02-20T16:59:59.772Z,18.8
2023-02-20T17:02:59.786Z,19.9
2023-02-20T17:05:59.878Z,18.8
2023-02-20T17:08:59.786Z,20.8
2023-02-20T17:11:59.775Z,17.9
2023-02-20T17:14:59.778Z,18.8
2023-02-20T17:17:59.791Z,19.7
2023-02-20T17:20:59.823Z,20.2
2023-02-20T17:23:59.807Z,19.2
2023-02-20T17:26:59.876Z,21
2023-02-20T17:29:59.798Z,18.4
2023-02-20T17:32:59.807Z,17.1
2023-02-20T17:35:59.811Z,17.2
2023-02-20T17:38:59.850Z,14.9
2023-02-20T17:41:59.821Z,14.7
2023-02-20T17:44:59.862Z,14.6
2023-02-20T17:47:59.828Z,14.2
2023-02-20T17:50:59.833Z,14.3
2023-02-20T17:53:59.863Z,15.3
2023-02-20T17:56:59.878Z,15.3
2023-02-20T17:59:59.834Z,14.3
2023-02-20T18:02:59.845Z,15.9
2023-02-20T18:05:59.877Z,15.5
2023-02-20T18:08:59.859Z,14.3
2023-02-20T18:11:59.863Z,14.1
2023-02-20T18:14:59.931Z,14.6
2023-02-20T18:17:59.881Z,14
2023-02-20T18:20:59.870Z,13.7
2023-02-20T18:24:00.102Z,14.8
2023-02-20T18:26:59.879Z,15.1
2023-02-20T18:29:59.893Z,15
2023-02-20T18:32:59.927Z,16.2
2023-02-20T18:36:07.832Z,15.8
2023-02-20T18:38:59.907Z,15.6
2023-02-20T18:41:59.904Z,16
2023-02-20T18:44:59.904Z,16.1
2023-02-20T18:47:59.912Z,17.6
2023-02-20T18:50:59.938Z,17.6
2023-02-20T18:53:59.923Z,17.3
2023-02-20T18:56:59.924Z,17.5
2023-02-20T18:59:59.921Z,18.9
2023-02-20T19:02:59.933Z,19.6
2023-02-20T19:05:59.966Z,19.4
2023-02-20T19:08:59.961Z,20.4
2023-02-20T19:11:59.938Z,18.2
2023-02-20T19:14:59.950Z,17.6
2023-02-20T19:17:59.945Z,19.1
2023-02-20T19:20:59.950Z,20
2023-02-20T19:23:59.964Z,19.9
2023-02-20T19:26:59.993Z,19.2
2023-02-20T19:29:59.975Z,18.1
2023-02-20T19:32:59.973Z,20.7
2023-02-20T19:35:59.983Z,19.9
2023-02-20T19:38:59.990Z,19.8
2023-02-20T19:41:59.991Z,20.4
2023-02-20T19:45:00.022Z,20.5
2023-02-20T19:47:59.999Z,21.4
2023-02-20T19:51:00.010Z,20.9
2023-02-20T19:54:01.502Z,21.6
2023-02-20T19:57:00.020Z,22.5
2023-02-20T20:00:00.020Z,22.4
2023-02-20T20:03:00.055Z,20.6
2023-02-20T20:06:00.040Z,22.6
2023-02-20T20:09:12.478Z,20.9
2023-02-20T20:12:00.049Z,22.1
2023-02-20T20:15:00.046Z,22.6
2023-02-20T20:18:00.077Z,22.4
2023-02-20T20:21:00.118Z,22.6
2023-02-20T20:24:00.051Z,23.9
2023-02-20T20:27:00.072Z,24.6
2023-02-20T20:30:00.095Z,23.6
2023-02-20T20:33:00.096Z,25.9
2023-02-20T20:36:00.139Z,26
2023-02-20T20:39:00.173Z,25.3
2023-02-20T20:42:00.166Z,27.9
2023-02-20T20:45:00.157Z,27
2023-02-20T20:48:00.343Z,28.4
2023-02-20T20:51:00.160Z,28.9
2023-02-20T20:54:00.259Z,30
2023-02-20T20:57:00.271Z,29.4
2023-02-20T21:00:00.297Z,30.8
2023-02-20T21:03:00.330Z,31.3
2023-02-20T21:06:00.259Z,29.8
2023-02-20T21:09:00.255Z,30.2
2023-02-20T21:12:00.253Z,31.7
2023-02-20T21:15:00.278Z,31.3
2023-02-20T21:18:00.252Z,31.3
2023-02-20T21:21:00.256Z,31.2
2023-02-20T21:24:00.253Z,32.9
2023-02-20T21:27:00.260Z,33.2
2023-02-20T21:30:00.264Z,34.4
2023-02-20T21:33:00.288Z,34.1
2023-02-20T21:36:00.296Z,36.1
2023-02-20T21:39:00.263Z,37.1
2023-02-20T21:42:00.263Z,36.4
2023-02-20T21:45:00.266Z,36.6
2023-02-20T21:48:00.274Z,37.7
2023-02-20T21:51:00.295Z,37.4
2023-02-20T21:54:00.266Z,37.5
2023-02-20T21:57:00.273Z,35.9
2023-02-20T22:00:00.297Z,36.6
2023-02-20T22:03:00.328Z,39.3
2023-02-20T22:06:00.282Z,38.2
2023-02-20T22:09:00.306Z,37.9
2023-02-20T22:12:00.278Z,39
2023-02-20T22:15:00.286Z,37.4
2023-02-20T22:18:00.279Z,36.5
2023-02-20T22:21:00.282Z,36.9
2023-02-20T22:24:00.283Z,41
2023-02-20T22:27:00.315Z,39.3
2023-02-20T22:30:00.293Z,39
2023-02-20T22:33:00.373Z,40.4
2023-02-20T22:36:00.295Z,40.5
2023-02-20T22:39:00.301Z,40.4
2023-02-20T22:42:00.299Z,39.3
2023-02-20T22:45:00.333Z,39.7
2023-02-20T22:48:00.302Z,39.4
2023-02-20T22:51:00.303Z,37.9
2023-02-20T22:54:00.307Z,40.9
2023-02-20T22:57:00.305Z,39.2
2023-02-20T23:00:00.325Z,39.1
2023-02-20T23:03:00.345Z,39.9
2023-02-20T23:06:08.026Z,42.7
2023-02-20T23:09:00.311Z,41.8
2023-02-20T23:12:00.314Z,41.8
2023-02-20T23:15:00.314Z,41
2023-02-20T23:18:00.320Z,40.5
2023-02-20T23:21:00.351Z,40.9
2023-02-20T23:24:00.322Z,40.7
2023-02-20T23:27:00.327Z,42.3
2023-02-20T23:30:00.327Z,41.8
2023-02-20T23:33:00.335Z,43.7
2023-02-20T23:36:00.325Z,43.5
2023-02-20T23:39:00.353Z,42.2
2023-02-20T23:42:00.337Z,41.9
2023-02-20T23:45:00.334Z,42.5
2023-02-20T23:48:00.344Z,41.9
2023-02-20T23:51:00.346Z,42.7
2023-02-20T23:54:00.361Z,45.9
2023-02-20T23:57:00.371Z,44
